Atmore, Alabama
Current Conditions -  °F | °C
As of 5:56 AM on Friday 28 Nov 2014 (Local Time) from KNSE Reporting Station
Clear Clear  
Wind Chill: 32°   Ceiling: Unl
Heat Index: 32°   Visibility: 10mi
Dew Point: 28°   Wind: 0mph
Humidity: 85%   Direction: NA
Pressure: 30.41"   Gusts: NA
Location:  31.03°N, 87.49°W
Report Text: KNSE 281156Z 00000KT 10SM CLR 00/M02 A3041 RMK AO2 SLP287 T00001022 10028 20000 53001 $
Loading
Personal Weather Stations






























Interactive Weather Map New forecast layout! Learn more

10-Day Weather Forecast

Advertisements
Track Severe Weather on mobile